Terminal Aerodrome Forecast
Issued by NWS Charleston, WV

Home | Current Version | Previous Version | Text Only | Print | Product List | Glossary On
Versions: 1 2 3 4 5 6 7 8 9 10 11 12 13 14 15 16 17 18 19 20 21 22 23 24
000
FTUS41 KRLX 271100
TAFEKN
TAF
KEKN 271120Z 2712/2812 32006KT P6SM OVC025
      TEMPO 2712/2714 4SM -SHSN OVC012
     FM271500 32010KT P6SM -SHRASN OVC025
     FM272300 32008KT 3SM -SHSN BR OVC015
     FM280600 33007KT P6SM OVC025
     FM281000 34006KT P6SM BKN035=

USA.gov is the U.S. government's official web portal to all federal, state and local government web resources and services.